sensor_id;sensor_type;location;lat;lon;timestamp;P1;durP1;ratioP1;P2;durP2;ratioP2
18445;SDS011;9352;50.888;4.466;2022-12-29T00:00:20;5.05;;;1.70;;
18445;SDS011;9352;50.888;4.466;2022-12-29T00:02:47;1.55;;;1.45;;
18445;SDS011;9352;50.888;4.466;2022-12-29T00:05:14;1.73;;;1.40;;
18445;SDS011;9352;50.888;4.466;2022-12-29T00:07:41;1.50;;;1.40;;
18445;SDS011;9352;50.888;4.466;2022-12-29T00:10:08;1.50;;;1.40;;
18445;SDS011;9352;50.888;4.466;2022-12-29T00:12:35;1.38;;;1.38;;
18445;SDS011;9352;50.888;4.466;2022-12-29T00:15:20;1.13;;;1.00;;
18445;SDS011;9352;50.888;4.466;2022-12-29T00:18:07;1.95;;;1.30;;
18445;SDS011;9352;50.888;4.466;2022-12-29T00:20:34;1.13;;;1.13;;
18445;SDS011;9352;50.888;4.466;2022-12-29T00:23:19;1.48;;;1.10;;
18445;SDS011;9352;50.888;4.466;2022-12-29T00:26:05;2.63;;;1.10;;
18445;SDS011;9352;50.888;4.466;2022-12-29T00:28:56;1.83;;;0.95;;
18445;SDS011;9352;50.888;4.466;2022-12-29T00:31:41;1.55;;;1.20;;
18445;SDS011;9352;50.888;4.466;2022-12-29T00:34:26;1.48;;;1.27;;
18445;SDS011;9352;50.888;4.466;2022-12-29T00:37:10;1.50;;;1.00;;
18445;SDS011;9352;50.888;4.466;2022-12-29T00:39:37;2.45;;;1.13;;
18445;SDS011;9352;50.888;4.466;2022-12-29T00:42:21;1.77;;;1.00;;
18445;SDS011;9352;50.888;4.466;2022-12-29T00:45:06;1.60;;;1.20;;
18445;SDS011;9352;50.888;4.466;2022-12-29T00:47:34;2.35;;;1.10;;
18445;SDS011;9352;50.888;4.466;2022-12-29T00:50:01;3.97;;;1.20;;
18445;SDS011;9352;50.888;4.466;2022-12-29T00:52:27;2.80;;;1.17;;
18445;SDS011;9352;50.888;4.466;2022-12-29T00:54:54;1.42;;;1.10;;
18445;SDS011;9352;50.888;4.466;2022-12-29T00:57:21;5.07;;;1.30;;
18445;SDS011;9352;50.888;4.466;2022-12-29T00:59:48;2.58;;;1.10;;
18445;SDS011;9352;50.888;4.466;2022-12-29T01:02:15;2.38;;;1.20;;
18445;SDS011;9352;50.888;4.466;2022-12-29T01:04:43;3.53;;;1.10;;
18445;SDS011;9352;50.888;4.466;2022-12-29T01:07:10;3.97;;;1.20;;
18445;SDS011;9352;50.888;4.466;2022-12-29T01:09:37;1.35;;;1.00;;
18445;SDS011;9352;50.888;4.466;2022-12-29T01:12:21;4.60;;;1.20;;
18445;SDS011;9352;50.888;4.466;2022-12-29T01:15:02;1.75;;;1.20;;
18445;SDS011;9352;50.888;4.466;2022-12-29T01:17:29;3.22;;;1.38;;
18445;SDS011;9352;50.888;4.466;2022-12-29T01:19:58;2.63;;;1.10;;
18445;SDS011;9352;50.888;4.466;2022-12-29T01:22:25;2.15;;;1.20;;
18445;SDS011;9352;50.888;4.466;2022-12-29T01:24:51;2.13;;;1.20;;
18445;SDS011;9352;50.888;4.466;2022-12-29T01:27:18;6.03;;;1.30;;
18445;SDS011;9352;50.888;4.466;2022-12-29T01:29:45;3.55;;;1.20;;
18445;SDS011;9352;50.888;4.466;2022-12-29T01:32:12;1.52;;;1.10;;
18445;SDS011;9352;50.888;4.466;2022-12-29T01:34:39;1.88;;;1.10;;
18445;SDS011;9352;50.888;4.466;2022-12-29T01:37:07;6.93;;;1.30;;
18445;SDS011;9352;50.888;4.466;2022-12-29T01:39:34;3.00;;;1.17;;
18445;SDS011;9352;50.888;4.466;2022-12-29T01:42:01;2.45;;;1.15;;
18445;SDS011;9352;50.888;4.466;2022-12-29T01:47:25;2.50;;;1.20;;
18445;SDS011;9352;50.888;4.466;2022-12-29T01:49:57;2.15;;;1.55;;
18445;SDS011;9352;50.888;4.466;2022-12-29T01:52:29;1.25;;;1.20;;
18445;SDS011;9352;50.888;4.466;2022-12-29T01:54:58;3.35;;;1.33;;
18445;SDS011;9352;50.888;4.466;2022-12-29T01:57:27;1.95;;;1.20;;
18445;SDS011;9352;50.888;4.466;2022-12-29T01:59:58;1.30;;;1.20;;
18445;SDS011;9352;50.888;4.466;2022-12-29T02:02:29;2.25;;;1.20;;
18445;SDS011;9352;50.888;4.466;2022-12-29T02:04:57;1.30;;;1.17;;
18445;SDS011;9352;50.888;4.466;2022-12-29T02:07:29;4.10;;;1.20;;
18445;SDS011;9352;50.888;4.466;2022-12-29T02:09:56;2.55;;;1.20;;
18445;SDS011;9352;50.888;4.466;2022-12-29T02:12:24;2.30;;;1.00;;
18445;SDS011;9352;50.888;4.466;2022-12-29T02:14:52;1.02;;;0.90;;
18445;SDS011;9352;50.888;4.466;2022-12-29T02:17:23;0.75;;;0.75;;
18445;SDS011;9352;50.888;4.466;2022-12-29T02:20:13;2.25;;;0.77;;
18445;SDS011;9352;50.888;4.466;2022-12-29T02:23:03;5.30;;;0.90;;
18445;SDS011;9352;50.888;4.466;2022-12-29T02:28:46;2.65;;;0.80;;
18445;SDS011;9352;50.888;4.466;2022-12-29T02:31:37;4.72;;;1.00;;
18445;SDS011;9352;50.888;4.466;2022-12-29T02:34:10;1.45;;;0.77;;
18445;SDS011;9352;50.888;4.466;2022-12-29T02:37:00;1.80;;;0.70;;
18445;SDS011;9352;50.888;4.466;2022-12-29T02:39:34;3.58;;;0.93;;
18445;SDS011;9352;50.888;4.466;2022-12-29T02:42:08;3.30;;;1.10;;
18445;SDS011;9352;50.888;4.466;2022-12-29T02:44:42;4.32;;;0.82;;
18445;SDS011;9352;50.888;4.466;2022-12-29T02:47:20;6.55;;;0.90;;
18445;SDS011;9352;50.888;4.466;2022-12-29T02:49:52;1.95;;;0.80;;
18445;SDS011;9352;50.888;4.466;2022-12-29T02:52:25;2.10;;;0.90;;
18445;SDS011;9352;50.888;4.466;2022-12-29T02:54:57;1.42;;;0.85;;
18445;SDS011;9352;50.888;4.466;2022-12-29T02:57:28;1.92;;;0.90;;
18445;SDS011;9352;50.888;4.466;2022-12-29T02:59:57;0.63;;;0.63;;
18445;SDS011;9352;50.888;4.466;2022-12-29T03:02:35;3.88;;;0.77;;
18445;SDS011;9352;50.888;4.466;2022-12-29T03:05:20;0.82;;;0.70;;
18445;SDS011;9352;50.888;4.466;2022-12-29T03:07:55;6.68;;;0.90;;
18445;SDS011;9352;50.888;4.466;2022-12-29T03:10:33;4.10;;;0.90;;
18445;SDS011;9352;50.888;4.466;2022-12-29T03:13:09;5.32;;;1.23;;
18445;SDS011;9352;50.888;4.466;2022-12-29T03:16:04;3.75;;;0.82;;
18445;SDS011;9352;50.888;4.466;2022-12-29T03:18:44;8.30;;;1.33;;
18445;SDS011;9352;50.888;4.466;2022-12-29T03:21:16;9.02;;;1.13;;
18445;SDS011;9352;50.888;4.466;2022-12-29T03:24:08;5.20;;;1.05;;
18445;SDS011;9352;50.888;4.466;2022-12-29T03:26:36;10.23;;;1.10;;
18445;SDS011;9352;50.888;4.466;2022-12-29T03:29:03;4.00;;;1.10;;
18445;SDS011;9352;50.888;4.466;2022-12-29T03:31:34;6.13;;;1.30;;
18445;SDS011;9352;50.888;4.466;2022-12-29T03:34:03;9.38;;;1.30;;
18445;SDS011;9352;50.888;4.466;2022-12-29T03:36:35;6.68;;;1.10;;
18445;SDS011;9352;50.888;4.466;2022-12-29T03:39:08;3.35;;;1.00;;
18445;SDS011;9352;50.888;4.466;2022-12-29T03:41:38;3.53;;;1.20;;
18445;SDS011;9352;50.888;4.466;2022-12-29T03:44:08;2.30;;;1.05;;
18445;SDS011;9352;50.888;4.466;2022-12-29T03:46:36;4.50;;;1.02;;
18445;SDS011;9352;50.888;4.466;2022-12-29T03:49:05;4.90;;;1.02;;
18445;SDS011;9352;50.888;4.466;2022-12-29T03:51:32;2.38;;;0.98;;
18445;SDS011;9352;50.888;4.466;2022-12-29T03:53:59;5.22;;;1.13;;
18445;SDS011;9352;50.888;4.466;2022-12-29T03:56:26;4.75;;;1.48;;
18445;SDS011;9352;50.888;4.466;2022-12-29T03:58:53;2.15;;;1.25;;
18445;SDS011;9352;50.888;4.466;2022-12-29T04:01:20;3.83;;;1.20;;
18445;SDS011;9352;50.888;4.466;2022-12-29T04:03:47;6.45;;;1.77;;
18445;SDS011;9352;50.888;4.466;2022-12-29T04:06:15;2.03;;;1.15;;
18445;SDS011;9352;50.888;4.466;2022-12-29T04:08:42;3.33;;;1.20;;
18445;SDS011;9352;50.888;4.466;2022-12-29T04:11:09;6.78;;;1.27;;
18445;SDS011;9352;50.888;4.466;2022-12-29T04:13:35;12.13;;;1.40;;
18445;SDS011;9352;50.888;4.466;2022-12-29T04:16:05;5.88;;;1.33;;
18445;SDS011;9352;50.888;4.466;2022-12-29T04:18:33;5.75;;;1.35;;
18445;SDS011;9352;50.888;4.466;2022-12-29T04:20:59;9.95;;;1.60;;
18445;SDS011;9352;50.888;4.466;2022-12-29T04:23:27;7.55;;;1.10;;
18445;SDS011;9352;50.888;4.466;2022-12-29T04:25:54;7.40;;;1.45;;
18445;SDS011;9352;50.888;4.466;2022-12-29T04:28:21;7.70;;;1.17;;
18445;SDS011;9352;50.888;4.466;2022-12-29T04:30:48;7.45;;;1.10;;
18445;SDS011;9352;50.888;4.466;2022-12-29T04:33:15;1.70;;;1.05;;
18445;SDS011;9352;50.888;4.466;2022-12-29T04:35:43;3.03;;;1.20;;
18445;SDS011;9352;50.888;4.466;2022-12-29T04:38:10;5.88;;;1.00;;
18445;SDS011;9352;50.888;4.466;2022-12-29T04:40:38;2.38;;;1.10;;
18445;SDS011;9352;50.888;4.466;2022-12-29T04:43:06;4.68;;;1.30;;
18445;SDS011;9352;50.888;4.466;2022-12-29T04:45:34;4.55;;;1.20;;
18445;SDS011;9352;50.888;4.466;2022-12-29T04:48:01;10.00;;;1.58;;
18445;SDS011;9352;50.888;4.466;2022-12-29T04:50:28;3.60;;;0.95;;
18445;SDS011;9352;50.888;4.466;2022-12-29T04:52:54;3.70;;;1.05;;
18445;SDS011;9352;50.888;4.466;2022-12-29T04:55:21;3.45;;;1.33;;
18445;SDS011;9352;50.888;4.466;2022-12-29T04:57:50;5.85;;;1.27;;
18445;SDS011;9352;50.888;4.466;2022-12-29T05:00:17;5.40;;;1.00;;
18445;SDS011;9352;50.888;4.466;2022-12-29T05:02:44;5.28;;;1.38;;
18445;SDS011;9352;50.888;4.466;2022-12-29T05:05:11;2.72;;;1.40;;
18445;SDS011;9352;50.888;4.466;2022-12-29T05:07:38;4.72;;;1.20;;
18445;SDS011;9352;50.888;4.466;2022-12-29T05:10:06;8.70;;;1.55;;
18445;SDS011;9352;50.888;4.466;2022-12-29T05:12:34;9.05;;;1.20;;
18445;SDS011;9352;50.888;4.466;2022-12-29T05:15:04;8.15;;;1.48;;
18445;SDS011;9352;50.888;4.466;2022-12-29T05:17:33;6.10;;;1.42;;
18445;SDS011;9352;50.888;4.466;2022-12-29T05:19:59;6.53;;;1.27;;
18445;SDS011;9352;50.888;4.466;2022-12-29T05:22:26;8.20;;;1.50;;
18445;SDS011;9352;50.888;4.466;2022-12-29T05:24:53;11.65;;;1.60;;
18445;SDS011;9352;50.888;4.466;2022-12-29T05:27:20;4.40;;;1.50;;
18445;SDS011;9352;50.888;4.466;2022-12-29T05:29:47;14.35;;;1.48;;
18445;SDS011;9352;50.888;4.466;2022-12-29T05:32:15;4.72;;;1.00;;
18445;SDS011;9352;50.888;4.466;2022-12-29T05:34:42;9.57;;;1.35;;
18445;SDS011;9352;50.888;4.466;2022-12-29T05:37:09;9.45;;;1.63;;
18445;SDS011;9352;50.888;4.466;2022-12-29T05:39:36;6.40;;;1.27;;
18445;SDS011;9352;50.888;4.466;2022-12-29T05:42:03;5.78;;;1.40;;
18445;SDS011;9352;50.888;4.466;2022-12-29T05:44:30;10.93;;;2.08;;
18445;SDS011;9352;50.888;4.466;2022-12-29T05:46:56;7.28;;;1.83;;
18445;SDS011;9352;50.888;4.466;2022-12-29T05:49:25;8.55;;;1.88;;
18445;SDS011;9352;50.888;4.466;2022-12-29T05:51:54;4.60;;;1.50;;
18445;SDS011;9352;50.888;4.466;2022-12-29T05:54:21;10.43;;;1.52;;
18445;SDS011;9352;50.888;4.466;2022-12-29T05:56:48;6.47;;;1.60;;
18445;SDS011;9352;50.888;4.466;2022-12-29T05:59:15;11.30;;;1.58;;
18445;SDS011;9352;50.888;4.466;2022-12-29T06:01:42;5.80;;;1.55;;
18445;SDS011;9352;50.888;4.466;2022-12-29T06:04:09;6.53;;;1.75;;
18445;SDS011;9352;50.888;4.466;2022-12-29T06:06:37;6.80;;;1.45;;
18445;SDS011;9352;50.888;4.466;2022-12-29T06:09:04;9.02;;;1.88;;
18445;SDS011;9352;50.888;4.466;2022-12-29T06:11:31;11.18;;;1.80;;
18445;SDS011;9352;50.888;4.466;2022-12-29T06:13:58;6.43;;;1.50;;
18445;SDS011;9352;50.888;4.466;2022-12-29T06:16:25;7.05;;;1.40;;
18445;SDS011;9352;50.888;4.466;2022-12-29T06:18:52;5.18;;;1.45;;
18445;SDS011;9352;50.888;4.466;2022-12-29T06:21:19;13.25;;;1.80;;
18445;SDS011;9352;50.888;4.466;2022-12-29T06:23:47;9.30;;;1.95;;
18445;SDS011;9352;50.888;4.466;2022-12-29T06:26:14;8.10;;;2.05;;
18445;SDS011;9352;50.888;4.466;2022-12-29T06:28:41;8.23;;;1.70;;
18445;SDS011;9352;50.888;4.466;2022-12-29T06:31:08;6.78;;;1.67;;
18445;SDS011;9352;50.888;4.466;2022-12-29T06:33:36;10.18;;;1.88;;
18445;SDS011;9352;50.888;4.466;2022-12-29T06:36:03;11.73;;;1.83;;
18445;SDS011;9352;50.888;4.466;2022-12-29T06:38:30;14.63;;;1.58;;
18445;SDS011;9352;50.888;4.466;2022-12-29T06:40:58;8.05;;;1.60;;
18445;SDS011;9352;50.888;4.466;2022-12-29T06:43:25;7.53;;;1.58;;
18445;SDS011;9352;50.888;4.466;2022-12-29T06:45:52;7.78;;;1.83;;
18445;SDS011;9352;50.888;4.466;2022-12-29T06:48:19;4.82;;;1.42;;
18445;SDS011;9352;50.888;4.466;2022-12-29T06:50:45;5.78;;;1.40;;
18445;SDS011;9352;50.888;4.466;2022-12-29T06:53:12;9.85;;;1.92;;
18445;SDS011;9352;50.888;4.466;2022-12-29T06:55:40;4.75;;;1.55;;
18445;SDS011;9352;50.888;4.466;2022-12-29T06:58:09;4.82;;;1.33;;
18445;SDS011;9352;50.888;4.466;2022-12-29T07:00:36;8.80;;;1.63;;
18445;SDS011;9352;50.888;4.466;2022-12-29T07:03:02;12.98;;;2.10;;
18445;SDS011;9352;50.888;4.466;2022-12-29T07:05:29;11.15;;;1.25;;
18445;SDS011;9352;50.888;4.466;2022-12-29T07:07:57;8.48;;;1.65;;
18445;SDS011;9352;50.888;4.466;2022-12-29T07:10:25;11.90;;;2.17;;
18445;SDS011;9352;50.888;4.466;2022-12-29T07:12:52;8.45;;;1.50;;
18445;SDS011;9352;50.888;4.466;2022-12-29T07:15:20;9.02;;;2.05;;
18445;SDS011;9352;50.888;4.466;2022-12-29T07:17:47;6.32;;;1.50;;
18445;SDS011;9352;50.888;4.466;2022-12-29T07:20:15;6.75;;;1.90;;
18445;SDS011;9352;50.888;4.466;2022-12-29T07:22:42;4.07;;;1.52;;
18445;SDS011;9352;50.888;4.466;2022-12-29T07:25:09;7.50;;;1.77;;
18445;SDS011;9352;50.888;4.466;2022-12-29T07:27:36;4.57;;;1.48;;
18445;SDS011;9352;50.888;4.466;2022-12-29T07:30:03;6.20;;;1.60;;
18445;SDS011;9352;50.888;4.466;2022-12-29T07:32:33;11.52;;;2.17;;
18445;SDS011;9352;50.888;4.466;2022-12-29T07:35:00;8.50;;;1.75;;
18445;SDS011;9352;50.888;4.466;2022-12-29T07:37:27;6.35;;;1.45;;
18445;SDS011;9352;50.888;4.466;2022-12-29T07:39:54;6.30;;;1.65;;
18445;SDS011;9352;50.888;4.466;2022-12-29T07:42:21;10.32;;;2.05;;
18445;SDS011;9352;50.888;4.466;2022-12-29T07:44:48;5.78;;;1.73;;
18445;SDS011;9352;50.888;4.466;2022-12-29T07:47:15;8.82;;;1.70;;
18445;SDS011;9352;50.888;4.466;2022-12-29T07:49:43;13.18;;;1.98;;
18445;SDS011;9352;50.888;4.466;2022-12-29T07:52:10;7.60;;;1.63;;
18445;SDS011;9352;50.888;4.466;2022-12-29T07:54:37;13.30;;;1.98;;
18445;SDS011;9352;50.888;4.466;2022-12-29T07:57:04;6.32;;;1.70;;
18445;SDS011;9352;50.888;4.466;2022-12-29T07:59:31;13.02;;;1.95;;
18445;SDS011;9352;50.888;4.466;2022-12-29T08:01:58;5.10;;;1.67;;
18445;SDS011;9352;50.888;4.466;2022-12-29T08:04:25;9.55;;;1.70;;
18445;SDS011;9352;50.888;4.466;2022-12-29T08:06:53;11.77;;;1.88;;
18445;SDS011;9352;50.888;4.466;2022-12-29T08:09:20;14.60;;;2.15;;
18445;SDS011;9352;50.888;4.466;2022-12-29T08:11:47;12.18;;;1.90;;
18445;SDS011;9352;50.888;4.466;2022-12-29T08:14:14;12.45;;;1.95;;
18445;SDS011;9352;50.888;4.466;2022-12-29T08:16:41;9.85;;;1.90;;
18445;SDS011;9352;50.888;4.466;2022-12-29T08:19:09;9.52;;;1.75;;
18445;SDS011;9352;50.888;4.466;2022-12-29T08:21:36;8.65;;;1.85;;
18445;SDS011;9352;50.888;4.466;2022-12-29T08:24:05;11.18;;;2.20;;
18445;SDS011;9352;50.888;4.466;2022-12-29T08:26:32;12.98;;;2.13;;
18445;SDS011;9352;50.888;4.466;2022-12-29T08:28:59;6.97;;;1.80;;
18445;SDS011;9352;50.888;4.466;2022-12-29T08:31:26;10.90;;;2.10;;
18445;SDS011;9352;50.888;4.466;2022-12-29T08:33:53;12.00;;;1.88;;
18445;SDS011;9352;50.888;4.466;2022-12-29T08:36:20;14.85;;;1.90;;
18445;SDS011;9352;50.888;4.466;2022-12-29T08:38:47;12.43;;;2.10;;
18445;SDS011;9352;50.888;4.466;2022-12-29T08:41:15;11.38;;;1.85;;
18445;SDS011;9352;50.888;4.466;2022-12-29T08:43:45;7.47;;;1.50;;
18445;SDS011;9352;50.888;4.466;2022-12-29T08:46:12;11.07;;;2.00;;
18445;SDS011;9352;50.888;4.466;2022-12-29T08:48:39;10.00;;;1.77;;
18445;SDS011;9352;50.888;4.466;2022-12-29T08:51:06;11.77;;;2.25;;
18445;SDS011;9352;50.888;4.466;2022-12-29T08:53:32;10.82;;;1.80;;
18445;SDS011;9352;50.888;4.466;2022-12-29T08:56:00;11.85;;;1.92;;
18445;SDS011;9352;50.888;4.466;2022-12-29T08:58:29;12.45;;;2.20;;
18445;SDS011;9352;50.888;4.466;2022-12-29T09:00:56;12.15;;;1.95;;
18445;SDS011;9352;50.888;4.466;2022-12-29T09:03:24;10.10;;;2.08;;
18445;SDS011;9352;50.888;4.466;2022-12-29T09:05:53;11.02;;;2.42;;
18445;SDS011;9352;50.888;4.466;2022-12-29T09:08:21;17.65;;;2.65;;
18445;SDS011;9352;50.888;4.466;2022-12-29T09:10:48;9.63;;;1.85;;
18445;SDS011;9352;50.888;4.466;2022-12-29T09:13:16;13.00;;;2.50;;
18445;SDS011;9352;50.888;4.466;2022-12-29T09:15:55;10.70;;;2.05;;
18445;SDS011;9352;50.888;4.466;2022-12-29T09:18:24;10.70;;;2.30;;
18445;SDS011;9352;50.888;4.466;2022-12-29T09:20:55;11.40;;;2.00;;
18445;SDS011;9352;50.888;4.466;2022-12-29T09:23:23;10.80;;;1.95;;
18445;SDS011;9352;50.888;4.466;2022-12-29T09:25:52;12.13;;;2.15;;
18445;SDS011;9352;50.888;4.466;2022-12-29T09:28:25;15.18;;;2.75;;
18445;SDS011;9352;50.888;4.466;2022-12-29T09:30:58;14.15;;;2.33;;
18445;SDS011;9352;50.888;4.466;2022-12-29T09:33:26;19.15;;;2.47;;
18445;SDS011;9352;50.888;4.466;2022-12-29T09:35:53;16.88;;;2.25;;
18445;SDS011;9352;50.888;4.466;2022-12-29T09:38:22;17.80;;;2.20;;
18445;SDS011;9352;50.888;4.466;2022-12-29T09:40:55;21.10;;;2.58;;
18445;SDS011;9352;50.888;4.466;2022-12-29T09:43:30;13.27;;;2.17;;
18445;SDS011;9352;50.888;4.466;2022-12-29T09:46:13;9.23;;;2.15;;
18445;SDS011;9352;50.888;4.466;2022-12-29T09:48:46;10.95;;;2.15;;
18445;SDS011;9352;50.888;4.466;2022-12-29T09:51:20;14.13;;;2.35;;
18445;SDS011;9352;50.888;4.466;2022-12-29T09:53:50;12.60;;;2.25;;
18445;SDS011;9352;50.888;4.466;2022-12-29T09:56:21;15.07;;;2.50;;
18445;SDS011;9352;50.888;4.466;2022-12-29T09:58:51;13.18;;;2.00;;
18445;SDS011;9352;50.888;4.466;2022-12-29T10:01:26;11.27;;;2.20;;
18445;SDS011;9352;50.888;4.466;2022-12-29T10:03:56;13.55;;;2.50;;
18445;SDS011;9352;50.888;4.466;2022-12-29T10:06:25;12.40;;;3.08;;
18445;SDS011;9352;50.888;4.466;2022-12-29T10:08:57;14.32;;;2.15;;
18445;SDS011;9352;50.888;4.466;2022-12-29T10:11:35;11.52;;;2.42;;
18445;SDS011;9352;50.888;4.466;2022-12-29T10:14:17;15.13;;;2.88;;
18445;SDS011;9352;50.888;4.466;2022-12-29T10:16:57;11.88;;;2.53;;
18445;SDS011;9352;50.888;4.466;2022-12-29T10:19:37;8.32;;;2.08;;
18445;SDS011;9352;50.888;4.466;2022-12-29T10:22:19;7.43;;;1.95;;
18445;SDS011;9352;50.888;4.466;2022-12-29T10:24:57;15.43;;;2.40;;
18445;SDS011;9352;50.888;4.466;2022-12-29T10:27:27;13.57;;;2.15;;
18445;SDS011;9352;50.888;4.466;2022-12-29T10:29:58;10.00;;;2.05;;
18445;SDS011;9352;50.888;4.466;2022-12-29T10:32:32;14.05;;;2.70;;
18445;SDS011;9352;50.888;4.466;2022-12-29T10:35:03;11.75;;;2.60;;
18445;SDS011;9352;50.888;4.466;2022-12-29T10:37:38;12.77;;;2.55;;
18445;SDS011;9352;50.888;4.466;2022-12-29T10:40:15;10.73;;;1.80;;
18445;SDS011;9352;50.888;4.466;2022-12-29T10:42:50;7.45;;;2.00;;
18445;SDS011;9352;50.888;4.466;2022-12-29T10:45:19;11.75;;;2.60;;
18445;SDS011;9352;50.888;4.466;2022-12-29T10:47:53;11.63;;;2.65;;
18445;SDS011;9352;50.888;4.466;2022-12-29T10:50:23;8.13;;;2.08;;
18445;SDS011;9352;50.888;4.466;2022-12-29T10:52:52;5.80;;;1.85;;
18445;SDS011;9352;50.888;4.466;2022-12-29T10:55:21;15.13;;;2.80;;
18445;SDS011;9352;50.888;4.466;2022-12-29T10:57:53;16.92;;;2.00;;
18445;SDS011;9352;50.888;4.466;2022-12-29T11:00:22;18.10;;;2.13;;
18445;SDS011;9352;50.888;4.466;2022-12-29T11:02:56;12.50;;;2.15;;
18445;SDS011;9352;50.888;4.466;2022-12-29T11:05:46;14.55;;;2.20;;
18445;SDS011;9352;50.888;4.466;2022-12-29T11:08:19;16.27;;;2.17;;
18445;SDS011;9352;50.888;4.466;2022-12-29T11:10:57;19.45;;;2.55;;
18445;SDS011;9352;50.888;4.466;2022-12-29T11:13:26;13.50;;;2.28;;
18445;SDS011;9352;50.888;4.466;2022-12-29T11:15:55;12.40;;;2.42;;
18445;SDS011;9352;50.888;4.466;2022-12-29T11:18:23;13.35;;;2.58;;
18445;SDS011;9352;50.888;4.466;2022-12-29T11:20:52;11.32;;;2.40;;
18445;SDS011;9352;50.888;4.466;2022-12-29T11:23:26;8.65;;;2.38;;
18445;SDS011;9352;50.888;4.466;2022-12-29T11:26:11;11.10;;;2.22;;
18445;SDS011;9352;50.888;4.466;2022-12-29T11:28:42;6.93;;;2.05;;
18445;SDS011;9352;50.888;4.466;2022-12-29T11:31:12;7.30;;;1.92;;
18445;SDS011;9352;50.888;4.466;2022-12-29T11:33:44;12.55;;;2.30;;
18445;SDS011;9352;50.888;4.466;2022-12-29T11:36:11;11.90;;;2.40;;
18445;SDS011;9352;50.888;4.466;2022-12-29T11:38:45;12.35;;;2.10;;
18445;SDS011;9352;50.888;4.466;2022-12-29T11:41:18;12.02;;;2.38;;
18445;SDS011;9352;50.888;4.466;2022-12-29T11:43:51;9.30;;;2.25;;
18445;SDS011;9352;50.888;4.466;2022-12-29T11:46:20;11.98;;;2.17;;
18445;SDS011;9352;50.888;4.466;2022-12-29T11:48:57;8.27;;;2.25;;
18445;SDS011;9352;50.888;4.466;2022-12-29T11:51:27;18.20;;;2.47;;
18445;SDS011;9352;50.888;4.466;2022-12-29T11:53:56;13.25;;;2.45;;
18445;SDS011;9352;50.888;4.466;2022-12-29T11:56:35;17.60;;;2.72;;
18445;SDS011;9352;50.888;4.466;2022-12-29T12:01:56;18.90;;;2.97;;
18445;SDS011;9352;50.888;4.466;2022-12-29T12:04:27;8.00;;;2.28;;
18445;SDS011;9352;50.888;4.466;2022-12-29T12:06:59;16.10;;;2.40;;
18445;SDS011;9352;50.888;4.466;2022-12-29T12:09:31;9.85;;;2.25;;
18445;SDS011;9352;50.888;4.466;2022-12-29T12:12:01;14.15;;;2.28;;
18445;SDS011;9352;50.888;4.466;2022-12-29T12:14:31;13.70;;;2.30;;
18445;SDS011;9352;50.888;4.466;2022-12-29T12:17:03;12.55;;;2.75;;
18445;SDS011;9352;50.888;4.466;2022-12-29T12:19:38;12.18;;;2.40;;
18445;SDS011;9352;50.888;4.466;2022-12-29T12:22:11;10.55;;;2.20;;
18445;SDS011;9352;50.888;4.466;2022-12-29T12:24:42;12.60;;;2.05;;
18445;SDS011;9352;50.888;4.466;2022-12-29T12:27:15;12.80;;;2.20;;
18445;SDS011;9352;50.888;4.466;2022-12-29T12:29:50;15.23;;;2.60;;
18445;SDS011;9352;50.888;4.466;2022-12-29T12:32:23;11.07;;;1.90;;
18445;SDS011;9352;50.888;4.466;2022-12-29T12:34:56;14.95;;;2.80;;
18445;SDS011;9352;50.888;4.466;2022-12-29T12:37:27;10.35;;;2.10;;
18445;SDS011;9352;50.888;4.466;2022-12-29T12:40:13;13.10;;;2.55;;
18445;SDS011;9352;50.888;4.466;2022-12-29T12:42:57;14.70;;;2.72;;
18445;SDS011;9352;50.888;4.466;2022-12-29T12:45:37;13.20;;;2.13;;
18445;SDS011;9352;50.888;4.466;2022-12-29T12:48:15;7.28;;;1.92;;
18445;SDS011;9352;50.888;4.466;2022-12-29T12:50:58;6.82;;;2.28;;
18445;SDS011;9352;50.888;4.466;2022-12-29T12:53:36;13.23;;;2.70;;
18445;SDS011;9352;50.888;4.466;2022-12-29T12:56:16;12.20;;;2.40;;
18445;SDS011;9352;50.888;4.466;2022-12-29T12:59:03;15.75;;;2.35;;
18445;SDS011;9352;50.888;4.466;2022-12-29T13:01:42;15.63;;;2.08;;
18445;SDS011;9352;50.888;4.466;2022-12-29T13:04:30;8.15;;;2.28;;
18445;SDS011;9352;50.888;4.466;2022-12-29T13:07:10;16.10;;;2.65;;
18445;SDS011;9352;50.888;4.466;2022-12-29T13:09:47;9.15;;;2.30;;
18445;SDS011;9352;50.888;4.466;2022-12-29T13:12:27;10.23;;;2.22;;
18445;SDS011;9352;50.888;4.466;2022-12-29T13:15:05;14.10;;;2.20;;
18445;SDS011;9352;50.888;4.466;2022-12-29T13:17:41;11.02;;;2.28;;
18445;SDS011;9352;50.888;4.466;2022-12-29T13:20:19;10.82;;;2.63;;
18445;SDS011;9352;50.888;4.466;2022-12-29T13:22:54;10.65;;;2.47;;
18445;SDS011;9352;50.888;4.466;2022-12-29T13:25:30;6.10;;;1.92;;
18445;SDS011;9352;50.888;4.466;2022-12-29T13:28:04;13.00;;;1.92;;
18445;SDS011;9352;50.888;4.466;2022-12-29T13:30:38;9.52;;;1.95;;
18445;SDS011;9352;50.888;4.466;2022-12-29T13:33:17;14.77;;;2.88;;
18445;SDS011;9352;50.888;4.466;2022-12-29T13:35:54;8.45;;;2.50;;
18445;SDS011;9352;50.888;4.466;2022-12-29T13:38:28;15.68;;;2.17;;
18445;SDS011;9352;50.888;4.466;2022-12-29T13:41:00;6.63;;;1.75;;
18445;SDS011;9352;50.888;4.466;2022-12-29T13:43:31;10.48;;;1.80;;
18445;SDS011;9352;50.888;4.466;2022-12-29T13:46:02;11.77;;;2.78;;
18445;SDS011;9352;50.888;4.466;2022-12-29T13:48:37;8.32;;;2.03;;
18445;SDS011;9352;50.888;4.466;2022-12-29T13:51:09;10.25;;;2.25;;
18445;SDS011;9352;50.888;4.466;2022-12-29T13:53:41;10.45;;;2.35;;
18445;SDS011;9352;50.888;4.466;2022-12-29T13:56:22;11.90;;;2.10;;
18445;SDS011;9352;50.888;4.466;2022-12-29T13:58:56;10.07;;;2.00;;
18445;SDS011;9352;50.888;4.466;2022-12-29T14:01:33;15.98;;;2.25;;
18445;SDS011;9352;50.888;4.466;2022-12-29T14:04:08;9.90;;;2.20;;
18445;SDS011;9352;50.888;4.466;2022-12-29T14:06:37;11.60;;;2.67;;
18445;SDS011;9352;50.888;4.466;2022-12-29T14:12:06;11.70;;;2.60;;
18445;SDS011;9352;50.888;4.466;2022-12-29T14:14:53;9.35;;;2.03;;
18445;SDS011;9352;50.888;4.466;2022-12-29T14:17:28;15.32;;;2.25;;
18445;SDS011;9352;50.888;4.466;2022-12-29T14:19:55;10.55;;;2.40;;
18445;SDS011;9352;50.888;4.466;2022-12-29T14:22:25;15.90;;;2.40;;
18445;SDS011;9352;50.888;4.466;2022-12-29T14:24:54;16.85;;;2.92;;
18445;SDS011;9352;50.888;4.466;2022-12-29T14:33:26;20.75;;;2.63;;
18445;SDS011;9352;50.888;4.466;2022-12-29T14:35:55;12.77;;;2.72;;
18445;SDS011;9352;50.888;4.466;2022-12-29T14:38:29;13.27;;;2.80;;
18445;SDS011;9352;50.888;4.466;2022-12-29T14:44:02;7.97;;;1.75;;
18445;SDS011;9352;50.888;4.466;2022-12-29T14:46:46;9.38;;;1.88;;
18445;SDS011;9352;50.888;4.466;2022-12-29T14:49:22;13.48;;;1.83;;
18445;SDS011;9352;50.888;4.466;2022-12-29T14:51:52;4.80;;;1.55;;
18445;SDS011;9352;50.888;4.466;2022-12-29T14:57:15;7.72;;;2.08;;
18445;SDS011;9352;50.888;4.466;2022-12-29T14:59:47;8.02;;;2.50;;
18445;SDS011;9352;50.888;4.466;2022-12-29T15:02:19;10.07;;;2.00;;
18445;SDS011;9352;50.888;4.466;2022-12-29T15:04:50;11.07;;;2.40;;
18445;SDS011;9352;50.888;4.466;2022-12-29T15:07:19;11.23;;;1.90;;
18445;SDS011;9352;50.888;4.466;2022-12-29T15:09:47;8.98;;;1.80;;
18445;SDS011;9352;50.888;4.466;2022-12-29T15:12:23;11.45;;;2.08;;
18445;SDS011;9352;50.888;4.466;2022-12-29T15:14:59;6.00;;;1.40;;
18445;SDS011;9352;50.888;4.466;2022-12-29T15:17:28;10.80;;;1.50;;
18445;SDS011;9352;50.888;4.466;2022-12-29T15:19:57;9.68;;;2.00;;
18445;SDS011;9352;50.888;4.466;2022-12-29T15:22:25;13.07;;;1.63;;
18445;SDS011;9352;50.888;4.466;2022-12-29T15:24:52;7.65;;;1.77;;
18445;SDS011;9352;50.888;4.466;2022-12-29T15:27:22;9.27;;;1.90;;
18445;SDS011;9352;50.888;4.466;2022-12-29T15:29:55;4.45;;;1.40;;
18445;SDS011;9352;50.888;4.466;2022-12-29T15:32:24;3.58;;;1.50;;
18445;SDS011;9352;50.888;4.466;2022-12-29T15:34:53;12.85;;;1.83;;
18445;SDS011;9352;50.888;4.466;2022-12-29T15:37:22;4.78;;;1.60;;
18445;SDS011;9352;50.888;4.466;2022-12-29T15:39:51;5.15;;;1.40;;
18445;SDS011;9352;50.888;4.466;2022-12-29T15:42:35;8.98;;;1.70;;